createdAt,value
2023-04-04T00:00:00.731Z,0.00
2023-04-04T00:01:00.682Z,0.00
2023-04-04T00:02:00.685Z,0.00
2023-04-04T00:03:00.776Z,0.00
2023-04-04T00:04:00.709Z,0.00
2023-04-04T00:05:00.613Z,0.00
2023-04-04T00:06:00.654Z,0.00
2023-04-04T00:07:00.590Z,0.00
2023-04-04T00:08:00.585Z,0.00
2023-04-04T00:09:00.571Z,0.00
2023-04-04T00:10:00.554Z,0.00
2023-04-04T00:11:00.598Z,0.00
2023-04-04T00:12:00.562Z,0.00
2023-04-04T00:13:00.545Z,0.00
2023-04-04T00:14:00.513Z,0.00
2023-04-04T00:15:00.559Z,0.00
2023-04-04T00:16:00.549Z,0.00
2023-04-04T00:17:00.477Z,0.00
2023-04-04T00:18:00.494Z,0.00
2023-04-04T00:19:00.460Z,0.00
2023-04-04T00:20:00.453Z,0.00
2023-04-04T00:21:00.468Z,0.00
2023-04-04T00:22:00.433Z,0.00
2023-04-04T00:23:00.414Z,0.00
2023-04-04T00:24:00.407Z,0.00
2023-04-04T00:25:00.401Z,0.00
2023-04-04T00:26:00.422Z,0.00
2023-04-04T00:27:00.367Z,0.00
2023-04-04T00:28:00.404Z,0.00
2023-04-04T00:29:00.348Z,0.00
2023-04-04T00:30:00.350Z,0.00
2023-04-04T00:31:00.365Z,0.00
2023-04-04T00:32:00.363Z,0.00
2023-04-04T00:33:00.374Z,0.00
2023-04-04T00:34:00.286Z,0.00
2023-04-04T00:35:00.269Z,0.00
2023-04-04T00:36:00.350Z,0.00
2023-04-04T00:37:00.256Z,0.00
2023-04-04T00:38:00.289Z,0.00
2023-04-04T00:39:00.234Z,0.00
2023-04-04T00:40:00.243Z,0.00
2023-04-04T00:41:00.256Z,0.00
2023-04-04T00:42:00.214Z,0.00
2023-04-04T00:43:00.195Z,0.00
2023-04-04T00:44:00.179Z,0.00
2023-04-04T00:45:00.180Z,0.00
2023-04-04T00:46:00.250Z,0.00
2023-04-04T00:47:00.139Z,0.00
2023-04-04T00:48:00.194Z,0.00
2023-04-04T00:49:00.129Z,0.00
2023-04-04T00:50:00.147Z,0.00
2023-04-04T00:51:00.146Z,0.00
2023-04-04T00:52:00.115Z,0.00
2023-04-04T00:53:00.108Z,0.00
2023-04-04T00:54:00.075Z,0.00
2023-04-04T00:55:00.050Z,0.00
2023-04-04T00:56:00.130Z,0.00
2023-04-04T00:57:00.026Z,0.00
2023-04-04T00:58:00.025Z,0.00
2023-04-04T00:59:00.011Z,0.00
2023-04-04T01:00:00.004Z,0.00
2023-04-04T01:01:00.087Z,0.00
2023-04-04T01:01:59.980Z,0.00
2023-04-04T01:02:59.958Z,0.00
2023-04-04T01:03:59.949Z,0.00
2023-04-04T01:04:59.933Z,0.00
2023-04-04T01:05:59.963Z,0.00
2023-04-04T01:06:59.927Z,0.00
2023-04-04T01:07:59.919Z,0.00
2023-04-04T01:08:59.892Z,0.00
2023-04-04T01:09:59.872Z,0.00
2023-04-04T01:10:59.914Z,0.00
2023-04-04T01:11:59.852Z,0.00
2023-04-04T01:12:59.849Z,0.00
2023-04-04T01:13:59.828Z,0.00
2023-04-04T01:14:59.813Z,0.00
2023-04-04T01:15:59.848Z,0.00
2023-04-04T01:16:59.945Z,0.00
2023-04-04T01:17:59.818Z,0.00
2023-04-04T01:18:59.769Z,0.00
2023-04-04T01:19:59.752Z,0.00
2023-04-04T01:20:59.786Z,0.00
2023-04-04T01:21:59.736Z,0.00
2023-04-04T01:22:59.747Z,0.00
2023-04-04T01:23:59.724Z,0.00
2023-04-04T01:24:59.689Z,0.00
2023-04-04T01:25:59.725Z,0.00
2023-04-04T01:26:59.665Z,0.00
2023-04-04T01:27:59.679Z,0.00
2023-04-04T01:28:59.683Z,0.00
2023-04-04T01:29:59.636Z,0.00
2023-04-04T01:30:59.738Z,0.00
2023-04-04T01:31:59.621Z,0.00
2023-04-04T01:32:59.706Z,0.00
2023-04-04T01:33:59.592Z,0.00
2023-04-04T01:34:59.588Z,0.00
2023-04-04T01:35:59.702Z,0.00
2023-04-04T01:36:59.563Z,0.00
2023-04-04T01:37:59.554Z,0.00
2023-04-04T01:38:59.533Z,0.00
2023-04-04T01:39:59.527Z,0.00
2023-04-04T01:40:59.566Z,0.00
2023-04-04T01:41:59.504Z,0.00
2023-04-04T01:42:59.497Z,0.00
2023-04-04T01:43:59.478Z,0.00
2023-04-04T01:44:59.486Z,0.00
2023-04-04T01:45:59.556Z,0.00
2023-04-04T01:46:59.442Z,0.00
2023-04-04T01:47:59.498Z,0.00
2023-04-04T01:48:59.428Z,0.00
2023-04-04T01:49:59.415Z,0.00
2023-04-04T01:50:59.452Z,0.00
2023-04-04T01:51:59.394Z,0.00
2023-04-04T01:52:59.372Z,0.00
2023-04-04T01:53:59.379Z,0.00
2023-04-04T01:54:59.359Z,0.00
2023-04-04T01:55:59.396Z,0.00
2023-04-04T01:56:59.333Z,0.00
2023-04-04T01:57:59.353Z,0.00
2023-04-04T01:58:59.320Z,0.00
2023-04-04T01:59:59.300Z,0.00
2023-04-04T02:00:59.321Z,0.00
2023-04-04T02:01:59.280Z,0.00
2023-04-04T02:02:59.275Z,0.00
2023-04-04T02:03:59.324Z,0.00
2023-04-04T02:04:59.257Z,0.00
2023-04-04T02:05:59.293Z,0.00
2023-04-04T02:06:59.235Z,0.00
2023-04-04T02:07:59.272Z,0.00
2023-04-04T02:08:59.217Z,0.00
2023-04-04T02:09:59.222Z,0.00
2023-04-04T02:10:59.218Z,0.00
2023-04-04T02:11:59.180Z,0.00
2023-04-04T02:12:59.176Z,0.00
2023-04-04T02:13:59.151Z,0.00
2023-04-04T02:14:59.148Z,0.00
2023-04-04T02:15:59.205Z,0.00
2023-04-04T02:16:59.132Z,0.00
2023-04-04T02:18:01.746Z,0.00
2023-04-04T02:18:59.122Z,0.00
2023-04-04T02:19:59.105Z,0.00
2023-04-04T02:20:59.127Z,0.00
2023-04-04T02:21:59.062Z,0.00
2023-04-04T02:22:59.058Z,0.00
2023-04-04T02:23:59.047Z,0.00
2023-04-04T02:24:59.024Z,0.00
2023-04-04T02:25:59.054Z,0.00
2023-04-04T02:26:59.006Z,0.00
2023-04-04T02:27:58.990Z,0.00
2023-04-04T02:28:58.987Z,0.00
2023-04-04T02:29:58.960Z,0.00
2023-04-04T02:30:59.025Z,0.00
2023-04-04T02:31:58.950Z,0.00
2023-04-04T02:32:59.044Z,0.00
2023-04-04T02:33:58.927Z,0.00
2023-04-04T02:34:58.922Z,0.00
2023-04-04T02:35:59.058Z,0.00
2023-04-04T02:36:58.894Z,0.00
2023-04-04T02:37:58.893Z,0.00
2023-04-04T02:38:58.874Z,0.00
2023-04-04T02:39:58.855Z,0.00
2023-04-04T02:40:58.905Z,0.00
2023-04-04T02:41:58.838Z,0.00
2023-04-04T02:42:58.815Z,0.00
2023-04-04T02:43:58.814Z,0.00
2023-04-04T02:44:58.791Z,0.00
2023-04-04T02:46:01.159Z,0.00
2023-04-04T02:46:58.830Z,0.00
2023-04-04T02:47:58.833Z,0.00
2023-04-04T02:48:58.760Z,0.00
2023-04-04T02:49:58.742Z,0.00
2023-04-04T02:50:58.772Z,0.00
2023-04-04T02:51:58.712Z,0.00
2023-04-04T02:52:58.727Z,0.00
2023-04-04T02:53:58.700Z,0.00
2023-04-04T02:54:58.720Z,0.00
2023-04-04T02:55:58.725Z,0.00
2023-04-04T02:56:58.661Z,0.00
2023-04-04T02:57:58.669Z,0.00
2023-04-04T02:58:58.655Z,0.00
2023-04-04T02:59:58.665Z,0.00
2023-04-04T03:00:58.723Z,0.00
2023-04-04T03:01:58.627Z,0.00
2023-04-04T03:02:58.715Z,0.00
2023-04-04T03:03:58.702Z,0.00
2023-04-04T03:04:58.583Z,0.00
2023-04-04T03:05:58.571Z,0.00
2023-04-04T03:06:58.591Z,0.00
2023-04-04T03:07:58.561Z,0.00
2023-04-04T03:08:58.531Z,0.00
2023-04-04T03:09:58.540Z,0.00
2023-04-04T03:10:58.514Z,0.00
2023-04-04T03:11:58.551Z,0.00
2023-04-04T03:12:58.483Z,0.00
2023-04-04T03:13:58.470Z,0.00
2023-04-04T03:14:58.454Z,0.00
2023-04-04T03:15:58.441Z,0.00
2023-04-04T03:16:58.544Z,0.00
2023-04-04T03:17:58.477Z,0.00
2023-04-04T03:18:58.418Z,0.00
2023-04-04T03:19:58.400Z,0.00
2023-04-04T03:20:58.450Z,0.00
2023-04-04T03:21:58.439Z,0.00
2023-04-04T03:22:58.386Z,0.00
2023-04-04T03:23:58.368Z,0.00
2023-04-04T03:24:58.359Z,0.00
2023-04-04T03:25:58.341Z,0.00
2023-04-04T03:26:58.366Z,0.00
2023-04-04T03:27:58.306Z,0.00
2023-04-04T03:28:58.311Z,0.00
2023-04-04T03:29:58.293Z,0.00
2023-04-04T03:30:58.285Z,0.00
2023-04-04T03:31:58.361Z,0.00
2023-04-04T03:32:58.273Z,0.00
2023-04-04T03:33:58.244Z,0.00
2023-04-04T03:34:58.233Z,0.00
2023-04-04T03:35:58.231Z,0.00
2023-04-04T03:36:58.263Z,0.00
2023-04-04T03:37:58.203Z,0.00
2023-04-04T03:38:58.217Z,0.00
2023-04-04T03:39:58.185Z,0.00
2023-04-04T03:40:58.182Z,0.00
2023-04-04T03:41:58.217Z,0.00
2023-04-04T03:42:58.139Z,0.00
2023-04-04T03:43:58.148Z,0.00
2023-04-04T03:44:58.134Z,0.00
2023-04-04T03:45:58.125Z,0.00
2023-04-04T03:46:58.163Z,0.00
2023-04-04T03:47:58.141Z,0.00
2023-04-04T03:48:58.080Z,0.00
2023-04-04T03:49:58.067Z,0.00
2023-04-04T03:50:58.067Z,0.00
2023-04-04T03:51:58.092Z,0.00
2023-04-04T03:52:58.039Z,0.00
2023-04-04T03:53:58.019Z,0.00
2023-04-04T03:54:58.007Z,0.00
2023-04-04T03:55:57.986Z,0.00
2023-04-04T03:56:58.033Z,4.00
2023-04-04T03:57:57.979Z,4.00
2023-04-04T03:58:57.985Z,0.00
2023-04-04T03:59:57.951Z,4.00
2023-04-04T04:00:57.949Z,4.00
2023-04-04T04:01:57.971Z,4.00
2023-04-04T04:02:58.032Z,4.00
2023-04-04T04:03:57.928Z,4.00
2023-04-04T04:04:57.900Z,4.00
2023-04-04T04:05:57.879Z,8.00
2023-04-04T04:06:58.038Z,8.00
2023-04-04T04:07:57.861Z,12.00
2023-04-04T04:08:57.852Z,12.00
2023-04-04T04:09:58.992Z,16.00
2023-04-04T04:10:57.855Z,16.00
2023-04-04T04:11:57.860Z,20.00
2023-04-04T04:12:57.803Z,24.00
2023-04-04T04:13:57.802Z,32.00
2023-04-04T04:14:57.778Z,36.00
2023-04-04T04:15:57.828Z,44.00
2023-04-04T04:16:57.813Z,52.00
2023-04-04T04:17:57.817Z,60.00
2023-04-04T04:18:57.732Z,72.00
2023-04-04T04:19:57.725Z,80.00
2023-04-04T04:20:57.722Z,92.00
2023-04-04T04:21:57.751Z,108.00
2023-04-04T04:22:57.689Z,120.00
2023-04-04T04:23:57.702Z,140.00
2023-04-04T04:24:57.657Z,160.00
2023-04-04T04:25:57.664Z,184.00
2023-04-04T04:26:57.716Z,204.00
2023-04-04T04:27:57.649Z,228.00
2023-04-04T04:28:57.615Z,256.00
2023-04-04T04:29:57.657Z,284.00
2023-04-04T04:30:57.601Z,316.00
2023-04-04T04:31:57.644Z,348.00
2023-04-04T04:32:57.689Z,384.00
2023-04-04T04:33:57.593Z,420.00
2023-04-04T04:34:57.590Z,456.00
2023-04-04T04:35:58.646Z,500.00
2023-04-04T04:36:57.594Z,544.00
2023-04-04T04:37:57.542Z,588.00
2023-04-04T04:38:57.522Z,636.00
2023-04-04T04:39:57.489Z,684.00
2023-04-04T04:40:57.525Z,728.00
2023-04-04T04:41:57.546Z,780.00
2023-04-04T04:42:57.485Z,832.00
2023-04-04T04:43:57.476Z,888.00
2023-04-04T04:44:57.454Z,940.00
2023-04-04T04:45:57.437Z,996.00
2023-04-04T04:46:57.560Z,1052.00
2023-04-04T04:47:57.506Z,1108.00
2023-04-04T04:48:57.513Z,1168.00
2023-04-04T04:49:57.359Z,1224.00
2023-04-04T04:50:57.377Z,1280.00
2023-04-04T04:51:57.406Z,1340.00
2023-04-04T04:52:57.384Z,1396.00
2023-04-04T04:53:57.333Z,1460.00
2023-04-04T04:54:57.329Z,1520.00
2023-04-04T04:55:57.317Z,1572.00
2023-04-04T04:56:57.364Z,1632.00
2023-04-04T04:57:57.298Z,1688.00
2023-04-04T04:58:57.317Z,1748.00
2023-04-04T04:59:57.280Z,1804.00
2023-04-04T05:00:57.296Z,1860.00
2023-04-04T05:01:57.295Z,1916.00
2023-04-04T05:02:57.332Z,1968.00
2023-04-04T05:03:57.207Z,2020.00
2023-04-04T05:04:57.214Z,2076.00
2023-04-04T05:05:57.184Z,2128.00
2023-04-04T05:06:57.233Z,2180.00
2023-04-04T05:07:57.213Z,2228.00
2023-04-04T05:08:57.280Z,2280.00
2023-04-04T05:09:57.219Z,2352.00
2023-04-04T05:10:57.161Z,2456.00
2023-04-04T05:11:57.172Z,2548.00
2023-04-04T05:12:57.116Z,2612.00
2023-04-04T05:13:57.093Z,2664.00
2023-04-04T05:14:57.119Z,2716.00
2023-04-04T05:15:57.094Z,2764.00
2023-04-04T05:16:57.162Z,2816.00
2023-04-04T05:17:57.085Z,2860.00
2023-04-04T05:18:57.061Z,2908.00
2023-04-04T05:19:57.076Z,2952.00
2023-04-04T05:20:57.022Z,3000.00
2023-04-04T05:21:57.095Z,3044.00
2023-04-04T05:22:57.024Z,3080.00
2023-04-04T05:23:56.982Z,3124.00
2023-04-04T05:24:56.989Z,3168.00
2023-04-04T05:25:56.959Z,3204.00
2023-04-04T05:26:57.018Z,3240.00
2023-04-04T05:27:56.969Z,3280.00
2023-04-04T05:28:56.926Z,3328.00
2023-04-04T05:29:56.942Z,3368.00
2023-04-04T05:30:57.506Z,3412.00
2023-04-04T05:31:57.186Z,3452.00
2023-04-04T05:32:56.938Z,3496.00
2023-04-04T05:33:56.899Z,3536.00
2023-04-04T05:34:56.895Z,3576.00
2023-04-04T05:35:56.983Z,3620.00
2023-04-04T05:36:56.886Z,3664.00
2023-04-04T05:37:56.832Z,3700.00
2023-04-04T05:38:56.845Z,3744.00
2023-04-04T05:39:56.812Z,3772.00
2023-04-04T05:40:56.809Z,3808.00
2023-04-04T05:41:56.837Z,3848.00
2023-04-04T05:42:56.802Z,3888.00
2023-04-04T05:43:56.750Z,3920.00
2023-04-04T05:44:56.749Z,3956.00
2023-04-04T05:45:56.821Z,3984.00
2023-04-04T05:46:56.806Z,4016.00
2023-04-04T05:47:56.774Z,4036.00
2023-04-04T05:48:56.752Z,4052.00
2023-04-04T05:49:56.744Z,4080.00
2023-04-04T05:50:56.720Z,4072.00
2023-04-04T05:51:56.733Z,4100.00
2023-04-04T05:52:56.675Z,4132.00
2023-04-04T05:53:56.664Z,4144.00
2023-04-04T05:54:56.735Z,4176.00
2023-04-04T05:55:56.666Z,4208.00
2023-04-04T05:56:56.714Z,4252.00
2023-04-04T05:57:56.638Z,4276.00
2023-04-04T05:58:56.653Z,4264.00
2023-04-04T05:59:56.587Z,4300.00
2023-04-04T06:00:56.585Z,4348.00
2023-04-04T06:01:56.603Z,4376.00
2023-04-04T06:02:56.628Z,4392.00
2023-04-04T06:03:56.564Z,4388.00
2023-04-04T06:04:56.531Z,4400.00
2023-04-04T06:05:56.562Z,4436.00
2023-04-04T06:06:56.636Z,4456.00
2023-04-04T06:07:56.521Z,4488.00
2023-04-04T06:08:56.502Z,4508.00
2023-04-04T06:09:56.483Z,4516.00
2023-04-04T06:10:56.462Z,4536.00
2023-04-04T06:11:56.526Z,4532.00
2023-04-04T06:12:56.449Z,4536.00
2023-04-04T06:13:56.432Z,4572.00
2023-04-04T06:14:56.401Z,4592.00
2023-04-04T06:15:56.431Z,4620.00
2023-04-04T06:16:56.461Z,4652.00
2023-04-04T06:17:56.444Z,4696.00
2023-04-04T06:18:56.374Z,4744.00
2023-04-04T06:19:56.377Z,4804.00
2023-04-04T06:20:56.371Z,4836.00
2023-04-04T06:21:56.401Z,4860.00
2023-04-04T06:22:56.375Z,4868.00
2023-04-04T06:23:56.310Z,4896.00
2023-04-04T06:24:56.330Z,4908.00
2023-04-04T06:25:56.293Z,4924.00
2023-04-04T06:26:56.324Z,4948.00
2023-04-04T06:27:56.286Z,4960.00
2023-04-04T06:28:56.277Z,4968.00
2023-04-04T06:29:56.241Z,5008.00
2023-04-04T06:30:56.239Z,5048.00
2023-04-04T06:31:56.295Z,5084.00
2023-04-04T06:32:56.415Z,5112.00
2023-04-04T06:33:56.277Z,5128.00
2023-04-04T06:34:56.239Z,5144.00
2023-04-04T06:35:56.221Z,5172.00
2023-04-04T06:36:56.200Z,5204.00
2023-04-04T06:37:56.189Z,5224.00
2023-04-04T06:38:56.229Z,5256.00
2023-04-04T06:39:56.143Z,5288.00
2023-04-04T06:40:56.110Z,5312.00
2023-04-04T06:41:56.085Z,5332.00
2023-04-04T06:42:56.153Z,5356.00
2023-04-04T06:43:56.084Z,5388.00
2023-04-04T06:44:56.069Z,5416.00
2023-04-04T06:45:56.087Z,5444.00
2023-04-04T06:46:56.090Z,5460.00
2023-04-04T06:47:56.185Z,5488.00
2023-04-04T06:48:56.040Z,5528.00
2023-04-04T06:49:56.037Z,5560.00
2023-04-04T06:50:56.002Z,5588.00
2023-04-04T06:51:56.045Z,5616.00
2023-04-04T06:52:56.031Z,5648.00
2023-04-04T06:53:55.977Z,5684.00
2023-04-04T06:54:55.964Z,5720.00
2023-04-04T06:55:55.960Z,5764.00
2023-04-04T06:56:55.955Z,5796.00
2023-04-04T06:57:56.000Z,5820.00
2023-04-04T06:58:55.971Z,5856.00
2023-04-04T06:59:55.923Z,5912.00
2023-04-04T07:00:55.936Z,5952.00
2023-04-04T07:01:55.879Z,5988.00
2023-04-04T07:02:55.965Z,6016.00
2023-04-04T07:03:55.827Z,6056.00
2023-04-04T07:04:55.898Z,6104.00
2023-04-04T07:05:55.850Z,6164.00
2023-04-04T07:06:55.821Z,6232.00
2023-04-04T07:07:55.859Z,6284.00
2023-04-04T07:08:55.850Z,6344.00
2023-04-04T07:09:55.772Z,6420.00
2023-04-04T07:10:55.803Z,6528.00
2023-04-04T07:11:55.793Z,6572.00
2023-04-04T07:12:55.792Z,6620.00
2023-04-04T07:13:55.730Z,6640.00
2023-04-04T07:14:55.758Z,6660.00
2023-04-04T07:15:55.770Z,6736.00
2023-04-04T07:16:55.713Z,6808.00
2023-04-04T07:18:11.602Z,6836.00
2023-04-04T07:18:55.696Z,6900.00
2023-04-04T07:19:55.700Z,6992.00
2023-04-04T07:20:55.661Z,7096.00
2023-04-04T07:21:55.682Z,7240.00
2023-04-04T07:22:55.692Z,7368.00
2023-04-04T07:23:55.657Z,7448.00
2023-04-04T07:24:55.640Z,7588.00
2023-04-04T07:25:55.659Z,7772.00
2023-04-04T07:26:55.593Z,8028.00
2023-04-04T07:28:09.627Z,8336.00
2023-04-04T07:28:56.578Z,8680.00
2023-04-04T07:29:55.559Z,9024.00
2023-04-04T07:30:55.551Z,8652.00
2023-04-04T07:31:55.553Z,9744.00
2023-04-04T07:32:55.669Z,10204.00
2023-04-04T07:33:55.524Z,10508.00
2023-04-04T07:34:55.500Z,10860.00
2023-04-04T07:35:55.559Z,11280.00
2023-04-04T07:36:55.477Z,12020.00
2023-04-04T07:37:55.614Z,12872.00
2023-04-04T07:38:55.449Z,13836.00
2023-04-04T07:39:55.424Z,14800.00
2023-04-04T07:40:55.469Z,15356.00
2023-04-04T07:41:55.453Z,15640.00
2023-04-04T07:42:55.484Z,16164.00
2023-04-04T07:43:55.390Z,16736.00
2023-04-04T07:44:55.423Z,16856.00
2023-04-04T07:45:55.373Z,16880.00
2023-04-04T07:47:06.407Z,16960.00
2023-04-04T07:47:56.449Z,17312.00
2023-04-04T07:48:55.361Z,17984.00
2023-04-04T07:49:55.322Z,18752.00
2023-04-04T07:50:55.318Z,19136.00
2023-04-04T07:51:55.311Z,19104.00
2023-04-04T07:52:55.334Z,19680.00
2023-04-04T07:53:55.291Z,20288.00
2023-04-04T07:54:55.271Z,20896.00
2023-04-04T07:55:55.297Z,21376.00
2023-04-04T07:56:55.266Z,22624.00
2023-04-04T07:57:55.286Z,22976.00
2023-04-04T07:58:55.307Z,24160.00
2023-04-04T07:59:55.223Z,25344.00
2023-04-04T08:00:55.195Z,26816.00
2023-04-04T08:01:55.199Z,28512.00
2023-04-04T08:02:55.304Z,30016.00
2023-04-04T08:03:55.294Z,30400.00
2023-04-04T08:04:55.127Z,30816.00
2023-04-04T08:05:55.143Z,31648.00
2023-04-04T08:06:55.120Z,32576.00
2023-04-04T08:07:55.215Z,33760.00
2023-04-04T08:08:55.112Z,34336.00
2023-04-04T08:09:55.108Z,35328.00
2023-04-04T08:10:55.104Z,36640.00
2023-04-04T08:11:55.074Z,37728.00
2023-04-04T08:12:55.094Z,39936.00
2023-04-04T08:13:55.089Z,41504.00
2023-04-04T08:14:55.030Z,42336.00
2023-04-04T08:15:55.041Z,43680.00
2023-04-04T08:16:55.013Z,45088.00
2023-04-04T08:17:55.128Z,46528.00
2023-04-04T08:18:54.976Z,46432.00
2023-04-04T08:19:54.989Z,46080.00
2023-04-04T08:20:54.968Z,46464.00
2023-04-04T08:21:54.961Z,46304.00
2023-04-04T08:22:55.011Z,45952.00
2023-04-04T08:23:54.978Z,44704.00
2023-04-04T08:24:54.937Z,46176.00
2023-04-04T08:25:54.924Z,47584.00
2023-04-04T08:27:04.635Z,35104.00
2023-04-04T08:27:55.938Z,46784.00
2023-04-04T08:28:54.891Z,19712.00
2023-04-04T08:29:54.856Z,29632.00
2023-04-04T08:30:54.860Z,39360.00
2023-04-04T08:31:54.831Z,20448.00
2023-04-04T08:32:54.884Z,21600.00
2023-04-04T08:33:54.844Z,48704.00
2023-04-04T08:34:54.799Z,29920.00
2023-04-04T08:35:54.822Z,16420.00
2023-04-04T08:36:54.777Z,16168.00
2023-04-04T08:37:54.841Z,17984.00
2023-04-04T08:38:54.769Z,30976.00
2023-04-04T08:39:54.761Z,14940.00
2023-04-04T08:40:54.772Z,14648.00
2023-04-04T08:41:54.744Z,15572.00
2023-04-04T08:42:54.759Z,16164.00
2023-04-04T08:43:54.817Z,16540.00
2023-04-04T08:44:54.680Z,18112.00
2023-04-04T08:45:54.681Z,50336.00
2023-04-04T08:46:54.679Z,19648.00
2023-04-04T08:47:54.742Z,17700.00
2023-04-04T08:48:54.647Z,44992.00
2023-04-04T08:49:54.685Z,50144.00
2023-04-04T08:50:54.625Z,50048.00
2023-04-04T08:51:54.661Z,50592.00
2023-04-04T08:52:54.668Z,22528.00
2023-04-04T08:53:54.611Z,20480.00
2023-04-04T08:54:54.576Z,19776.00
2023-04-04T08:55:54.581Z,38240.00
2023-04-04T08:56:54.560Z,17228.00
2023-04-04T08:57:54.580Z,15464.00
2023-04-04T08:58:54.771Z,15868.00
2023-04-04T08:59:54.562Z,16700.00
2023-04-04T09:00:54.578Z,23264.00
2023-04-04T09:01:54.521Z,17648.00
2023-04-04T09:02:54.624Z,16540.00
2023-04-04T09:03:54.541Z,15300.00
2023-04-04T09:05:05.403Z,14496.00
2023-04-04T09:05:55.485Z,13892.00
2023-04-04T09:06:54.451Z,13676.00
2023-04-04T09:07:54.490Z,13692.00
2023-04-04T09:08:54.412Z,15752.00
2023-04-04T09:09:54.400Z,12868.00
2023-04-04T09:10:54.459Z,12568.00
2023-04-04T09:11:54.399Z,11852.00
2023-04-04T09:12:57.305Z,11696.00
2023-04-04T09:13:55.398Z,14568.00
2023-04-04T09:14:54.352Z,37216.00
2023-04-04T09:15:54.369Z,48928.00
2023-04-04T09:16:54.397Z,49024.00
2023-04-04T09:17:54.397Z,13884.00
2023-04-04T09:18:54.312Z,20928.00
2023-04-04T09:19:54.322Z,50368.00
2023-04-04T09:20:54.281Z,50880.00
2023-04-04T09:21:54.306Z,38656.00
2023-04-04T09:22:54.296Z,28736.00
2023-04-04T09:23:54.252Z,55264.00
2023-04-04T09:24:54.264Z,54624.00
2023-04-04T09:26:54.230Z,50976.00
2023-04-04T09:27:54.265Z,51680.00
2023-04-04T09:28:54.198Z,51840.00
2023-04-04T09:29:54.181Z,47392.00
2023-04-04T09:30:54.187Z,36256.00
2023-04-04T09:31:54.182Z,30400.00
2023-04-04T09:32:54.168Z,15836.00
2023-04-04T09:33:54.179Z,22080.00
2023-04-04T09:34:55.129Z,21632.00
2023-04-04T09:35:54.162Z,13264.00
2023-04-04T09:36:54.118Z,10624.00
2023-04-04T09:37:54.105Z,10396.00
2023-04-04T09:38:54.230Z,11780.00
2023-04-04T09:39:54.097Z,42304.00
2023-04-04T09:40:54.119Z,34336.00
2023-04-04T09:41:55.958Z,51072.00
2023-04-04T09:42:54.035Z,51296.00
2023-04-04T09:43:54.053Z,52416.00
2023-04-04T09:44:53.993Z,52768.00
2023-04-04T09:45:54.047Z,52096.00
2023-04-04T09:46:53.987Z,51840.00
2023-04-04T09:47:54.037Z,52992.00
2023-04-04T09:48:54.003Z,54304.00
2023-04-04T09:49:53.951Z,51488.00
2023-04-04T09:50:53.933Z,43520.00
2023-04-04T09:51:53.941Z,42144.00
2023-04-04T09:52:53.913Z,52800.00
2023-04-04T09:53:53.982Z,47904.00
2023-04-04T09:55:53.916Z,53024.00
2023-04-04T09:56:53.904Z,54944.00
2023-04-04T09:57:53.848Z,57024.00
2023-04-04T09:59:03.374Z,58976.00
2023-04-04T09:59:54.866Z,60416.00
2023-04-04T10:00:53.820Z,60416.00
2023-04-04T10:01:53.834Z,21632.00
2023-04-04T10:02:53.817Z,25024.00
2023-04-04T10:03:53.881Z,25600.00
2023-04-04T10:05:05.260Z,67328.00
2023-04-04T10:05:54.793Z,67936.00
2023-04-04T10:06:53.888Z,29824.00
2023-04-04T10:07:53.756Z,22624.00
2023-04-04T10:08:53.837Z,19456.00
2023-04-04T10:09:53.733Z,18592.00
2023-04-04T10:11:06.520Z,16992.00
2023-04-04T10:11:54.688Z,15484.00
2023-04-04T10:12:53.718Z,14224.00
2023-04-04T10:13:53.738Z,13096.00
2023-04-04T10:14:53.664Z,12656.00
2023-04-04T10:15:53.792Z,13000.00
2023-04-04T10:16:53.626Z,13284.00
2023-04-04T10:17:53.668Z,12820.00
2023-04-04T10:18:53.729Z,28672.00
2023-04-04T10:19:53.608Z,30848.00
2023-04-04T10:20:56.943Z,60192.00
2023-04-04T10:21:54.571Z,28864.00
2023-04-04T10:22:53.584Z,33600.00
2023-04-04T10:23:53.645Z,43296.00
2023-04-04T10:24:53.550Z,71360.00
2023-04-04T10:25:53.532Z,72064.00
2023-04-04T10:26:53.544Z,73760.00
2023-04-04T10:27:53.533Z,78944.00
2023-04-04T10:28:53.547Z,84992.00
2023-04-04T10:29:53.487Z,89280.00
2023-04-04T10:31:05.139Z,70144.00
2023-04-04T10:31:54.532Z,89568.00
2023-04-04T10:32:53.468Z,88480.00
2023-04-04T10:33:53.633Z,102304.00
2023-04-04T10:34:53.420Z,118240.00
2023-04-04T10:35:53.409Z,30944.00
2023-04-04T10:36:53.409Z,147488.00
2023-04-04T10:37:53.390Z,163584.00
2023-04-04T10:38:53.426Z,161472.00
2023-04-04T10:39:53.394Z,157248.00
2023-04-04T10:40:53.360Z,149120.00
2023-04-04T10:41:53.334Z,144512.00
2023-04-04T10:42:53.316Z,142720.00
2023-04-04T10:43:53.375Z,71456.00
2023-04-04T10:44:53.986Z,31808.00
2023-04-04T10:45:53.288Z,21792.00
2023-04-04T10:46:53.373Z,21120.00
2023-04-04T10:47:53.336Z,70304.00
2023-04-04T10:48:53.294Z,26080.00
2023-04-04T10:49:53.259Z,31264.00
2023-04-04T10:50:53.233Z,22240.00
2023-04-04T10:51:56.876Z,60224.00
2023-04-04T10:52:53.231Z,14124.00
2023-04-04T10:53:53.258Z,89024.00
2023-04-04T10:54:53.186Z,83232.00
2023-04-04T10:55:53.190Z,80000.00
2023-04-04T10:56:53.198Z,78720.00
2023-04-04T10:57:53.184Z,81568.00
2023-04-04T10:58:53.245Z,82304.00
2023-04-04T10:59:53.130Z,79616.00
2023-04-04T11:00:53.173Z,78176.00
2023-04-04T11:01:53.145Z,79424.00
2023-04-04T11:02:53.219Z,82048.00
2023-04-04T11:03:53.154Z,83200.00
2023-04-04T11:04:53.105Z,82048.00
2023-04-04T11:05:53.125Z,81056.00
2023-04-04T11:06:53.142Z,85024.00
2023-04-04T11:08:06.848Z,32768.00
2023-04-04T11:08:54.108Z,29824.00
2023-04-04T11:09:53.035Z,95552.00
2023-04-04T11:10:53.014Z,89408.00
2023-04-04T11:11:52.996Z,90528.00
2023-04-04T11:13:02.223Z,92640.00
2023-04-04T11:13:54.009Z,94624.00
2023-04-04T11:14:52.975Z,98816.00
2023-04-04T11:15:52.978Z,43808.00
2023-04-04T11:16:53.047Z,120512.00
2023-04-04T11:17:53.004Z,134528.00
2023-04-04T11:18:53.033Z,157344.00
2023-04-04T11:19:52.924Z,172640.00
2023-04-04T11:20:52.894Z,22848.00
2023-04-04T11:21:52.873Z,16432.00
2023-04-04T11:22:52.873Z,61344.00
2023-04-04T11:23:52.915Z,19424.00
2023-04-04T11:24:53.099Z,144704.00
2023-04-04T11:25:52.863Z,140480.00
2023-04-04T11:26:52.835Z,135360.00
2023-04-04T11:27:52.885Z,137408.00
2023-04-04T11:28:52.840Z,135808.00
2023-04-04T11:29:52.806Z,135200.00
2023-04-04T11:30:52.813Z,136480.00
2023-04-04T11:31:52.791Z,132448.00
2023-04-04T11:33:03.854Z,127488.00
2023-04-04T11:33:53.800Z,120832.00
2023-04-04T11:34:52.770Z,112160.00
2023-04-04T11:35:52.768Z,114400.00
2023-04-04T11:36:52.711Z,124320.00
2023-04-04T11:37:52.702Z,129440.00
2023-04-04T11:38:52.799Z,126528.00
2023-04-04T11:39:52.749Z,122144.00
2023-04-04T11:40:52.737Z,31264.00
2023-04-04T11:41:52.740Z,30240.00
2023-04-04T11:42:52.656Z,22944.00
2023-04-04T11:43:52.713Z,17856.00
2023-04-04T11:44:52.634Z,16052.00
2023-04-04T11:45:52.650Z,15644.00
2023-04-04T11:46:52.603Z,15300.00
2023-04-04T11:47:52.646Z,14332.00
2023-04-04T11:48:52.642Z,13860.00
2023-04-04T11:49:52.572Z,15860.00
2023-04-04T11:50:52.546Z,62720.00
2023-04-04T11:51:52.523Z,58112.00
2023-04-04T11:52:53.974Z,61152.00
2023-04-04T11:53:52.581Z,61152.00
2023-04-04T11:54:52.625Z,61888.00
2023-04-04T11:55:52.496Z,63296.00
2023-04-04T11:56:52.503Z,65152.00
2023-04-04T11:57:52.474Z,66944.00
2023-04-04T11:59:01.453Z,68480.00
2023-04-04T11:59:53.485Z,68960.00
2023-04-04T12:00:52.424Z,71104.00
2023-04-04T12:01:52.432Z,73248.00
2023-04-04T12:02:52.501Z,74400.00
2023-04-04T12:03:52.456Z,77856.00
2023-04-04T12:04:52.443Z,60256.00
2023-04-04T12:05:52.397Z,83648.00
2023-04-04T12:06:52.375Z,82208.00
2023-04-04T12:07:52.355Z,74048.00
2023-04-04T12:08:52.466Z,27328.00
2023-04-04T12:09:52.310Z,26944.00
2023-04-04T12:10:52.344Z,25760.00
2023-04-04T12:11:52.333Z,22432.00
2023-04-04T12:12:52.300Z,21184.00
2023-04-04T12:13:52.317Z,20032.00
2023-04-04T12:14:53.555Z,21120.00
2023-04-04T12:15:52.300Z,21376.00
2023-04-04T12:16:52.257Z,18592.00
2023-04-04T12:17:52.339Z,17488.00
2023-04-04T12:18:52.299Z,19520.00
2023-04-04T12:19:52.212Z,69792.00
2023-04-04T12:20:52.269Z,69952.00
2023-04-04T12:21:52.206Z,70848.00